createdAt,value
2018-05-04T00:00:13.422Z,7.55
2018-05-04T00:02:42.204Z,7.46
2018-05-04T00:05:10.516Z,7.44
2018-05-04T00:07:38.853Z,7.46
2018-05-04T00:10:07.970Z,7.47
2018-05-04T00:12:36.304Z,7.50
2018-05-04T00:15:04.604Z,7.49
2018-05-04T00:17:32.957Z,7.35
2018-05-04T00:20:01.292Z,7.34
2018-05-04T00:22:29.655Z,7.30
2018-05-04T00:24:58.037Z,7.37
2018-05-04T00:27:26.365Z,7.35
2018-05-04T00:29:54.691Z,7.28
2018-05-04T00:32:24.523Z,7.37
2018-05-04T00:34:52.848Z,7.41
2018-05-04T00:37:21.204Z,7.38
2018-05-04T00:39:49.579Z,7.40
2018-05-04T00:42:17.928Z,7.32
2018-05-04T00:44:46.296Z,7.30
2018-05-04T00:47:14.816Z,7.29
2018-05-04T00:49:43.131Z,7.28
2018-05-04T00:52:11.616Z,7.24
2018-05-04T00:54:39.976Z,7.20
2018-05-04T00:57:08.313Z,7.14
2018-05-04T00:59:36.640Z,7.04
2018-05-04T01:02:05.985Z,7.05
2018-05-04T01:04:34.332Z,7.06
2018-05-04T01:07:02.667Z,7.00
2018-05-04T01:09:31.126Z,6.84
2018-05-04T01:11:59.492Z,6.83
2018-05-04T01:14:27.817Z,6.86
2018-05-04T01:16:56.540Z,6.70
2018-05-04T01:19:24.976Z,6.68
2018-05-04T01:21:53.297Z,6.65
2018-05-04T01:24:22.335Z,6.57
2018-05-04T01:26:50.823Z,6.55
2018-05-04T01:29:19.407Z,6.23
2018-05-04T01:31:49.207Z,6.08
2018-05-04T01:34:18.279Z,5.99
2018-05-04T01:36:47.054Z,5.92
2018-05-04T01:39:15.435Z,5.88
2018-05-04T01:41:43.829Z,5.88
2018-05-04T01:44:12.473Z,5.86
2018-05-04T01:46:43.085Z,5.88
2018-05-04T01:49:12.428Z,6.11
2018-05-04T01:51:40.945Z,6.15
2018-05-04T01:54:10.728Z,6.14
2018-05-04T01:56:39.342Z,6.24
2018-05-04T01:59:07.863Z,6.20
2018-05-04T02:01:36.222Z,6.44
2018-05-04T02:04:04.630Z,6.31
2018-05-04T02:06:33.053Z,6.50
2018-05-04T02:09:02.384Z,6.47
2018-05-04T02:11:30.862Z,6.18
2018-05-04T02:13:59.741Z,6.06
2018-05-04T02:16:28.336Z,6.11
2018-05-04T02:18:57.538Z,6.10
2018-05-04T02:21:26.285Z,6.00
2018-05-04T02:23:56.136Z,5.93
2018-05-04T02:26:25.799Z,5.87
2018-05-04T02:28:54.193Z,5.84
2018-05-04T02:31:22.576Z,5.81
2018-05-04T02:33:52.328Z,5.77
2018-05-04T02:36:21.072Z,5.75
2018-05-04T02:38:49.674Z,5.78
2018-05-04T02:41:21.128Z,5.83
2018-05-04T02:43:50.804Z,5.94
2018-05-04T02:46:20.233Z,6.01
2018-05-04T02:48:52.708Z,5.92
2018-05-04T02:51:21.348Z,5.88
2018-05-04T02:53:51.228Z,5.87
2018-05-04T02:56:20.694Z,5.78
2018-05-04T02:58:50.255Z,5.76
2018-05-04T03:01:19.059Z,5.80
2018-05-04T03:03:49.483Z,5.74
2018-05-04T03:06:19.171Z,5.96
2018-05-04T03:08:49.487Z,6.02
2018-05-04T03:11:18.060Z,6.13
2018-05-04T03:13:46.470Z,6.23
2018-05-04T03:16:14.824Z,6.14
2018-05-04T03:18:43.240Z,5.91
2018-05-04T03:21:11.820Z,5.71
2018-05-04T03:23:42.148Z,5.64
2018-05-04T03:26:10.478Z,5.56
2018-05-04T03:28:39.403Z,5.56
2018-05-04T03:31:08.642Z,5.54
2018-05-04T03:33:37.077Z,5.53
2018-05-04T03:36:05.599Z,5.54
2018-05-04T03:38:33.940Z,5.51
2018-05-04T03:41:03.561Z,5.49
2018-05-04T03:43:33.886Z,5.44
2018-05-04T03:46:02.233Z,5.44
2018-05-04T03:48:30.572Z,5.44
2018-05-04T03:50:58.888Z,5.50
2018-05-04T03:53:27.264Z,5.56
2018-05-04T03:55:55.676Z,5.58
2018-05-04T03:58:35.905Z,5.59
2018-05-04T04:01:16.461Z,5.62
2018-05-04T04:03:57.711Z,5.68
2018-05-04T04:06:26.116Z,5.58
2018-05-04T04:08:55.417Z,5.62
2018-05-04T04:11:24.591Z,5.69
2018-05-04T04:13:53.476Z,5.72
2018-05-04T04:16:22.736Z,5.75
2018-05-04T04:18:51.394Z,5.76
2018-05-04T04:21:22.245Z,5.77
2018-05-04T04:23:52.468Z,5.79
2018-05-04T04:26:22.570Z,5.81
2018-05-04T04:28:51.909Z,5.88
2018-05-04T04:31:21.856Z,5.94
2018-05-04T04:33:50.817Z,6.03
2018-05-04T04:36:21.087Z,6.08
2018-05-04T04:38:50.179Z,6.14
2018-05-04T04:41:19.718Z,6.18
2018-05-04T04:43:49.296Z,6.21
2018-05-04T04:46:17.729Z,6.27
2018-05-04T04:48:46.056Z,6.42
2018-05-04T04:51:15.515Z,6.46
2018-05-04T04:53:44.152Z,6.48
2018-05-04T04:56:12.674Z,6.51
2018-05-04T04:58:41.937Z,6.58
2018-05-04T05:01:10.412Z,6.63
2018-05-04T05:03:38.780Z,6.72
2018-05-04T05:06:07.156Z,6.76
2018-05-04T05:08:35.542Z,6.97
2018-05-04T05:11:03.873Z,7.08
2018-05-04T05:13:32.283Z,7.08
2018-05-04T05:16:00.651Z,7.22
2018-05-04T05:18:29.122Z,7.31
2018-05-04T05:20:57.631Z,7.55
2018-05-04T05:23:26.386Z,7.58
2018-05-04T05:25:55.531Z,7.59
2018-05-04T05:28:25.277Z,7.72
2018-05-04T05:30:54.260Z,7.74
2018-05-04T05:33:22.646Z,7.72
2018-05-04T05:35:51.104Z,7.79
2018-05-04T05:38:20.286Z,7.74
2018-05-04T05:40:48.818Z,7.80
2018-05-04T05:43:17.383Z,7.87
2018-05-04T05:45:46.631Z,7.99
2018-05-04T05:48:15.481Z,8.08
2018-05-04T05:50:47.873Z,8.20
2018-05-04T05:53:18.617Z,8.41
2018-05-04T05:55:49.925Z,8.57
2018-05-04T05:58:20.323Z,8.83
2018-05-04T06:03:26.275Z,9.34
2018-05-04T06:05:55.962Z,9.64
2018-05-04T06:08:24.416Z,9.79
2018-05-04T06:10:54.397Z,9.68
2018-05-04T06:13:24.386Z,9.61
2018-05-04T06:15:52.857Z,9.96
2018-05-04T06:18:21.196Z,10.19
2018-05-04T06:20:49.836Z,10.34
2018-05-04T06:23:18.384Z,10.52
2018-05-04T06:25:46.806Z,10.65
2018-05-04T06:28:15.326Z,10.76
2018-05-04T06:30:43.798Z,10.83
2018-05-04T06:33:12.193Z,10.59
2018-05-04T06:35:40.722Z,10.53
2018-05-04T06:38:10.069Z,10.22
2018-05-04T06:40:38.444Z,10.17
2018-05-04T06:43:07.593Z,10.15
2018-05-04T06:45:35.972Z,10.35
2018-05-04T06:48:04.298Z,10.28
2018-05-04T06:50:32.680Z,10.41
2018-05-04T06:53:01.107Z,10.66
2018-05-04T06:55:29.507Z,10.61
2018-05-04T06:57:58.297Z,10.50
2018-05-04T07:00:26.703Z,10.91
2018-05-04T07:02:55.054Z,11.06
2018-05-04T07:05:23.841Z,11.40
2018-05-04T07:07:52.191Z,11.61
2018-05-04T07:10:20.676Z,11.56
2018-05-04T07:12:49.438Z,11.42
2018-05-04T07:15:18.044Z,11.30
2018-05-04T07:17:46.396Z,11.28
2018-05-04T07:20:15.137Z,11.72
2018-05-04T07:22:43.577Z,11.79
2018-05-04T07:25:11.985Z,11.86
2018-05-04T07:27:40.346Z,12.20
2018-05-04T07:30:08.699Z,12.37
2018-05-04T07:32:37.121Z,12.76
2018-05-04T07:35:05.467Z,12.87
2018-05-04T07:37:33.817Z,12.39
2018-05-04T07:40:02.139Z,12.37
2018-05-04T07:42:30.555Z,11.89
2018-05-04T07:44:58.897Z,11.78
2018-05-04T07:47:27.218Z,11.87
2018-05-04T07:49:55.624Z,12.18
2018-05-04T07:52:23.956Z,12.44
2018-05-04T07:54:52.275Z,12.63
2018-05-04T07:57:21.564Z,12.52
2018-05-04T07:59:49.925Z,12.80
2018-05-04T08:02:18.768Z,12.68
2018-05-04T08:04:47.214Z,12.75
2018-05-04T08:07:15.822Z,12.83
2018-05-04T08:09:44.217Z,12.62
2018-05-04T08:12:13.093Z,12.77
2018-05-04T08:14:41.436Z,13.09
2018-05-04T08:17:09.763Z,13.20
2018-05-04T08:19:38.367Z,13.20
2018-05-04T08:22:06.686Z,13.30
2018-05-04T08:24:35.015Z,13.17
2018-05-04T08:27:03.532Z,12.97
2018-05-04T08:29:32.817Z,13.09
2018-05-04T08:32:01.141Z,13.36
2018-05-04T08:34:29.517Z,13.46
2018-05-04T08:36:57.853Z,13.37
2018-05-04T08:39:26.184Z,13.30
2018-05-04T08:41:55.294Z,12.62
2018-05-04T08:44:23.624Z,12.81
2018-05-04T08:46:52.082Z,12.81
2018-05-04T08:49:20.508Z,12.46
2018-05-04T08:51:49.021Z,12.48
2018-05-04T08:54:17.488Z,12.41
2018-05-04T08:56:46.802Z,12.34
2018-05-04T08:59:15.574Z,12.52
2018-05-04T09:01:46.760Z,12.78
2018-05-04T09:04:15.198Z,12.75
2018-05-04T09:06:43.634Z,13.14
2018-05-04T09:09:12.145Z,13.25
2018-05-04T09:11:41.115Z,13.43
2018-05-04T09:14:09.466Z,13.57
2018-05-04T09:16:37.839Z,13.75
2018-05-04T09:19:06.980Z,13.64
2018-05-04T09:21:35.404Z,13.69
2018-05-04T09:24:03.765Z,13.96
2018-05-04T09:26:32.158Z,14.74
2018-05-04T09:29:00.545Z,15.79
2018-05-04T09:31:28.898Z,16.85
2018-05-04T09:33:58.154Z,17.09
2018-05-04T09:36:26.881Z,18.26
2018-05-04T09:38:55.219Z,18.73
2018-05-04T09:41:24.287Z,19.15
2018-05-04T09:43:53.449Z,19.95
2018-05-04T09:46:21.931Z,20.28
2018-05-04T09:48:50.313Z,21.50
2018-05-04T09:51:18.690Z,19.59
2018-05-04T09:53:47.049Z,19.95
2018-05-04T09:56:15.473Z,21.24
2018-05-04T09:58:43.869Z,21.60
2018-05-04T10:01:12.316Z,19.16
2018-05-04T10:03:40.745Z,19.84
2018-05-04T10:06:09.082Z,19.55
2018-05-04T10:08:37.428Z,19.44
2018-05-04T10:11:05.802Z,18.81
2018-05-04T10:13:34.149Z,18.60
2018-05-04T10:16:02.600Z,19.75
2018-05-04T10:18:32.011Z,19.31
2018-05-04T10:21:00.337Z,19.16
2018-05-04T10:23:28.696Z,19.75
2018-05-04T10:25:57.102Z,20.36
2018-05-04T10:28:25.514Z,21.36
2018-05-04T10:30:53.944Z,21.82
2018-05-04T10:33:22.373Z,20.57
2018-05-04T10:35:50.759Z,19.54
2018-05-04T10:38:19.154Z,19.91
2018-05-04T10:40:47.539Z,19.94
2018-05-04T10:43:15.904Z,19.87
2018-05-04T10:45:44.284Z,21.31
2018-05-04T10:48:13.289Z,21.45
2018-05-04T10:50:41.671Z,20.74
2018-05-04T10:53:10.023Z,22.02
2018-05-04T10:55:38.404Z,21.59
2018-05-04T10:58:06.749Z,22.52
2018-05-04T11:00:35.159Z,22.28
2018-05-04T11:03:03.658Z,22.04
2018-05-04T11:05:31.971Z,21.94
2018-05-04T11:08:00.293Z,22.55
2018-05-04T11:10:28.917Z,22.89
2018-05-04T11:12:57.299Z,22.75
2018-05-04T11:15:25.718Z,22.60
2018-05-04T11:17:54.017Z,22.51
2018-05-04T11:20:22.533Z,22.52
2018-05-04T11:22:50.898Z,21.75
2018-05-04T11:25:20.611Z,20.68
2018-05-04T11:27:48.955Z,21.40
2018-05-04T11:30:17.302Z,20.32
2018-05-04T11:32:46.648Z,21.17
2018-05-04T11:35:15.339Z,18.88
2018-05-04T11:37:43.836Z,19.13
2018-05-04T11:40:13.907Z,18.88
2018-05-04T11:42:42.286Z,19.65
2018-05-04T11:45:10.628Z,19.92
2018-05-04T11:47:39.007Z,21.03
2018-05-04T11:50:07.362Z,21.38
2018-05-04T11:52:35.696Z,20.49
2018-05-04T11:55:04.113Z,19.05
2018-05-04T11:57:32.452Z,19.50
2018-05-04T12:00:00.769Z,20.08
2018-05-04T12:02:30.039Z,19.13
2018-05-04T12:04:58.354Z,17.41
2018-05-04T12:07:26.840Z,16.86
2018-05-04T12:09:55.420Z,18.06
2018-05-04T12:12:24.845Z,18.83
2018-05-04T12:14:53.309Z,19.55
2018-05-04T12:17:23.278Z,19.23
2018-05-04T12:19:51.702Z,19.83
2018-05-04T12:22:20.781Z,20.41
2018-05-04T12:24:49.525Z,20.37
2018-05-04T12:27:17.957Z,20.22
2018-05-04T12:29:46.334Z,21.11
2018-05-04T12:32:14.764Z,20.83
2018-05-04T12:34:43.190Z,19.88
2018-05-04T12:37:11.956Z,21.22
2018-05-04T12:39:40.900Z,20.75
2018-05-04T12:42:09.246Z,19.28
2018-05-04T12:44:37.562Z,19.99
2018-05-04T12:47:06.004Z,21.24
2018-05-04T12:49:34.425Z,20.97
2018-05-04T12:52:02.765Z,20.24
2018-05-04T12:54:31.515Z,21.43
2018-05-04T12:56:59.835Z,19.33
2018-05-04T12:59:28.256Z,18.92
2018-05-04T13:01:56.609Z,19.82
2018-05-04T13:04:25.156Z,21.07
2018-05-04T13:06:53.452Z,21.53
2018-05-04T13:09:21.911Z,22.06
2018-05-04T13:11:50.395Z,21.50
2018-05-04T13:14:19.757Z,20.58
2018-05-04T13:16:48.217Z,21.79
2018-05-04T13:19:17.192Z,22.68
2018-05-04T13:21:45.552Z,21.93
2018-05-04T13:24:14.125Z,21.55
2018-05-04T13:26:42.569Z,21.96
2018-05-04T13:29:10.993Z,21.10
2018-05-04T13:31:39.345Z,21.63
2018-05-04T13:34:07.694Z,21.31
2018-05-04T13:36:36.073Z,21.60
2018-05-04T13:39:04.509Z,22.53
2018-05-04T13:41:32.834Z,23.24
2018-05-04T13:44:01.190Z,21.27
2018-05-04T13:46:29.569Z,21.30
2018-05-04T13:48:57.887Z,21.95
2018-05-04T13:51:26.332Z,21.87
2018-05-04T13:53:55.599Z,22.10
2018-05-04T13:56:24.138Z,22.76
2018-05-04T13:58:52.467Z,23.45
2018-05-04T14:01:20.881Z,21.64
2018-05-04T14:03:49.383Z,20.45
2018-05-04T14:06:17.751Z,20.05
2018-05-04T14:08:46.486Z,21.83
2018-05-04T14:11:14.852Z,22.18
2018-05-04T14:13:43.659Z,22.92
2018-05-04T14:16:12.022Z,23.61
2018-05-04T14:21:15.617Z,21.24
2018-05-04T14:23:44.007Z,19.84
2018-05-04T14:26:12.378Z,19.27
2018-05-04T14:28:40.745Z,18.77
2018-05-04T14:31:09.074Z,18.37
2018-05-04T14:33:37.433Z,19.21
2018-05-04T14:36:05.877Z,20.24
2018-05-04T14:38:34.195Z,21.17
2018-05-04T14:41:02.545Z,21.85
2018-05-04T14:43:31.621Z,22.14
2018-05-04T14:45:59.987Z,21.99
2018-05-04T14:48:28.300Z,20.64
2018-05-04T14:50:57.575Z,22.08
2018-05-04T14:53:25.889Z,22.28
2018-05-04T14:55:54.243Z,21.28
2018-05-04T14:58:23.218Z,21.17
2018-05-04T15:00:51.700Z,19.88
2018-05-04T15:03:20.192Z,20.38
2018-05-04T15:05:48.653Z,21.61
2018-05-04T15:08:16.980Z,21.37
2018-05-04T15:10:45.522Z,21.80
2018-05-04T15:13:14.209Z,20.03
2018-05-04T15:15:42.598Z,21.19
2018-05-04T15:18:11.065Z,21.84
2018-05-04T15:20:40.305Z,21.14
2018-05-04T15:23:10.224Z,21.73
2018-05-04T15:25:38.578Z,21.82
2018-05-04T15:28:07.593Z,21.98
2018-05-04T15:30:35.936Z,22.67
2018-05-04T15:33:04.284Z,22.16
2018-05-04T15:35:32.668Z,22.86
2018-05-04T15:38:00.998Z,21.71
2018-05-04T15:40:29.452Z,21.50
2018-05-04T15:42:58.518Z,20.99
2018-05-04T15:45:26.905Z,20.02
2018-05-04T15:47:55.257Z,19.92
2018-05-04T15:50:29.261Z,20.46
2018-05-04T15:52:57.623Z,20.28
2018-05-04T15:55:25.977Z,19.71
2018-05-04T15:57:55.132Z,20.41
2018-05-04T16:00:23.488Z,19.80
2018-05-04T16:02:51.895Z,19.54
2018-05-04T16:05:20.282Z,19.02
2018-05-04T16:07:48.697Z,18.16
2018-05-04T16:10:17.089Z,17.69
2018-05-04T16:12:46.893Z,17.06
2018-05-04T16:15:15.391Z,16.67
2018-05-04T16:17:43.903Z,16.75
2018-05-04T16:20:12.400Z,16.05
2018-05-04T16:22:40.863Z,16.03
2018-05-04T16:25:09.292Z,16.16
2018-05-04T16:27:38.278Z,15.89
2018-05-04T16:30:06.600Z,15.71
2018-05-04T16:32:34.989Z,15.73
2018-05-04T16:35:03.454Z,15.81
2018-05-04T16:37:31.790Z,15.66
2018-05-04T16:40:00.123Z,15.48
2018-05-04T16:42:28.549Z,15.72
2018-05-04T16:44:56.954Z,15.57
2018-05-04T16:47:25.423Z,15.51
2018-05-04T16:49:53.847Z,15.50
2018-05-04T16:52:22.230Z,15.56
2018-05-04T16:54:50.614Z,15.52
2018-05-04T16:57:20.325Z,15.57
2018-05-04T16:59:48.805Z,15.43
2018-05-04T17:02:17.191Z,15.33
2018-05-04T17:04:45.591Z,15.31
2018-05-04T17:07:14.031Z,15.47
2018-05-04T17:09:42.498Z,15.30
2018-05-04T17:12:10.897Z,15.14
2018-05-04T17:14:39.222Z,15.24
2018-05-04T17:17:07.562Z,15.20
2018-05-04T17:19:36.739Z,15.24
2018-05-04T17:22:05.180Z,15.23
2018-05-04T17:24:33.474Z,15.21
2018-05-04T17:27:02.599Z,14.89
2018-05-04T17:29:30.963Z,14.97
2018-05-04T17:32:00.998Z,14.92
2018-05-04T17:34:30.903Z,14.54
2018-05-04T17:36:59.437Z,14.59
2018-05-04T17:39:27.869Z,14.55
2018-05-04T17:41:56.690Z,14.60
2018-05-04T17:44:25.646Z,14.73
2018-05-04T17:46:54.194Z,14.54
2018-05-04T17:49:22.959Z,14.50
2018-05-04T17:51:51.531Z,14.48
2018-05-04T17:54:21.009Z,14.52
2018-05-04T17:56:49.418Z,14.50
2018-05-04T17:59:17.803Z,14.31
2018-05-04T18:01:46.287Z,14.51
2018-05-04T18:04:16.002Z,14.97
2018-05-04T18:06:45.204Z,15.40
2018-05-04T18:09:13.792Z,15.61
2018-05-04T18:11:42.515Z,15.37
2018-05-04T18:14:10.896Z,15.14
2018-05-04T18:16:39.214Z,14.87
2018-05-04T18:19:07.595Z,14.66
2018-05-04T18:21:35.957Z,14.44
2018-05-04T18:24:04.300Z,14.33
2018-05-04T18:26:32.653Z,14.19
2018-05-04T18:29:00.986Z,14.08
2018-05-04T18:31:29.331Z,14.10
2018-05-04T18:33:57.715Z,14.04
2018-05-04T18:36:26.095Z,14.09
2018-05-04T18:38:54.428Z,14.00
2018-05-04T18:41:22.842Z,13.96
2018-05-04T18:43:51.266Z,13.97
2018-05-04T18:46:19.862Z,13.84
2018-05-04T18:48:48.660Z,13.89
2018-05-04T18:51:17.292Z,13.74
2018-05-04T18:53:45.683Z,13.69
2018-05-04T18:56:14.833Z,13.61
2018-05-04T18:58:43.463Z,13.50
2018-05-04T19:01:12.501Z,13.57
2018-05-04T19:03:40.961Z,13.49
2018-05-04T19:06:09.321Z,13.40
2018-05-04T19:08:37.675Z,13.33
2018-05-04T19:11:06.132Z,13.38
2018-05-04T19:13:34.448Z,13.24
2018-05-04T19:16:02.795Z,13.33
2018-05-04T19:18:31.998Z,13.27
2018-05-04T19:21:00.324Z,13.29
2018-05-04T19:23:28.685Z,13.23
2018-05-04T19:25:57.424Z,13.24
2018-05-04T19:28:25.841Z,13.23
2018-05-04T19:30:54.419Z,13.30
2018-05-04T19:33:23.662Z,13.31
2018-05-04T19:35:52.100Z,13.43
2018-05-04T19:38:20.593Z,13.35
2018-05-04T19:40:49.326Z,13.36
2018-05-04T19:43:17.753Z,13.21
2018-05-04T19:45:46.233Z,13.12
2018-05-04T19:48:15.053Z,13.15
2018-05-04T19:50:43.657Z,13.25
2018-05-04T19:53:12.114Z,13.06
2018-05-04T19:55:40.525Z,13.17
2018-05-04T19:58:08.873Z,13.14
2018-05-04T20:00:37.225Z,13.02
2018-05-04T20:03:05.766Z,13.06
2018-05-04T20:05:34.095Z,13.07
2018-05-04T20:08:02.465Z,13.09
2018-05-04T20:10:30.892Z,13.06
2018-05-04T20:12:59.280Z,13.07
2018-05-04T20:15:27.609Z,12.99
2018-05-04T20:17:56.703Z,13.03
2018-05-04T20:20:25.072Z,12.98
2018-05-04T20:22:53.524Z,12.94
2018-05-04T20:25:21.909Z,12.87
2018-05-04T20:27:50.337Z,12.91
2018-05-04T20:30:19.273Z,12.83
2018-05-04T20:32:48.595Z,12.75
2018-05-04T20:35:17.026Z,12.78
2018-05-04T20:37:45.965Z,12.72
2018-05-04T20:40:14.719Z,12.60
2018-05-04T20:42:43.540Z,12.63
2018-05-04T20:45:12.556Z,12.63
2018-05-04T20:47:41.090Z,12.58
2018-05-04T20:50:09.469Z,12.54
2018-05-04T20:52:37.814Z,12.64
2018-05-04T20:55:06.476Z,12.53
2018-05-04T20:57:34.828Z,12.32
2018-05-04T21:00:03.151Z,12.22
2018-05-04T21:02:31.546Z,12.15
2018-05-04T21:04:59.886Z,12.08
2018-05-04T21:07:28.206Z,12.03
2018-05-04T21:09:56.740Z,11.98
2018-05-04T21:12:26.096Z,11.95
2018-05-04T21:14:54.469Z,11.88
2018-05-04T21:17:22.952Z,11.90
2018-05-04T21:19:51.497Z,11.81
2018-05-04T21:22:19.905Z,11.78
2018-05-04T21:24:49.534Z,11.75
2018-05-04T21:27:18.015Z,11.68
2018-05-04T21:29:46.628Z,11.60
2018-05-04T21:32:15.157Z,11.52
2018-05-04T21:34:43.540Z,11.48
2018-05-04T21:37:11.869Z,11.47
2018-05-04T21:39:40.234Z,11.40
2018-05-04T21:42:08.716Z,11.36
2018-05-04T21:44:37.039Z,11.28
2018-05-04T21:47:05.458Z,11.27
2018-05-04T21:49:33.799Z,11.22
2018-05-04T21:52:02.122Z,11.19
2018-05-04T21:54:30.482Z,11.08
2018-05-04T21:56:58.837Z,11.04
2018-05-04T21:59:27.190Z,11.01
2018-05-04T22:01:55.733Z,10.94
2018-05-04T22:04:24.122Z,10.90
2018-05-04T22:06:52.461Z,10.83
2018-05-04T22:09:20.881Z,10.76
2018-05-04T22:11:49.313Z,10.77
2018-05-04T22:14:17.712Z,10.75
2018-05-04T22:16:46.736Z,10.73
2018-05-04T22:19:15.131Z,10.72
2018-05-04T22:21:43.838Z,10.70
2018-05-04T22:24:13.005Z,10.70
2018-05-04T22:26:41.345Z,10.65
2018-05-04T22:29:09.705Z,10.57
2018-05-04T22:31:38.219Z,10.58
2018-05-04T22:34:06.579Z,10.55
2018-05-04T22:36:34.930Z,10.55
2018-05-04T22:39:05.100Z,10.53
2018-05-04T22:41:33.462Z,10.54
2018-05-04T22:44:01.870Z,10.50
2018-05-04T22:46:30.237Z,10.46
2018-05-04T22:48:58.604Z,10.36
2018-05-04T22:51:27.008Z,10.41
2018-05-04T22:53:56.106Z,10.47
2018-05-04T22:56:24.453Z,10.57
2018-05-04T23:01:44.472Z,10.34
2018-05-04T23:04:12.871Z,10.18
2018-05-04T23:06:41.206Z,9.97
2018-05-04T23:09:09.579Z,9.91
2018-05-04T23:11:37.878Z,9.90
2018-05-04T23:14:06.190Z,9.86
2018-05-04T23:16:34.538Z,9.81
2018-05-04T23:19:02.894Z,9.77
2018-05-04T23:21:31.221Z,9.82
2018-05-04T23:23:59.538Z,9.82
2018-05-04T23:26:27.861Z,9.97
2018-05-04T23:28:56.194Z,9.88
2018-05-04T23:31:24.901Z,9.84
2018-05-04T23:33:53.245Z,9.74
2018-05-04T23:36:21.674Z,9.53
2018-05-04T23:38:50.437Z,9.42
2018-05-04T23:41:20.046Z,9.36
2018-05-04T23:43:48.424Z,9.28
2018-05-04T23:46:17.538Z,9.21
2018-05-04T23:48:46.088Z,9.15
2018-05-04T23:51:15.708Z,9.09
2018-05-04T23:53:46.515Z,9.03
2018-05-04T23:56:15.886Z,8.97
2018-05-04T23:58:44.369Z,8.94
